Ashland, South Carolina
Current Conditions -  °F | °C
As of 7:35 PM on Tuesday 25 Nov 2014 (Local Time) from KCDN Reporting Station
Scattered Clouds Scattered Clouds  
Wind Chill: 13°   Ceiling: Unl
Heat Index: 13°   Visibility: 10mi
Dew Point: 11°   Wind: 0mph
Humidity: 88%   Direction: NA
Pressure: 30.05"   Gusts: NA
Location:  34.2324°N, 80.2824°W
Report Text: KCDN 260035Z AUTO 00000KT 10SM SCT075 13/11 A3005 RMK AO2 TSNO
Loading
Personal Weather Stations






























Interactive Weather Map New forecast layout! Learn more

10-Day Weather Forecast

Advertisements
Track Severe Weather on mobile